Time;durP1;ratioP1;P1;durP2;ratioP2;P2;SDS_P1;SDS_P2;PMS_P1;PMS_P2;Temp;Humidity;BMP_temperature;BMP_pressure;BME280_temperature;BME280_humidity;BME280_pressure;Samples;Min_cycle;Max_cycle;Signal;HPM_P1;HPM_P2
2022/04/03 00:00:18;;;;;;;;;;;4.00;99.90;;;;;;5078944;28;19923;-74
2022/04/03 00:02:51;;;;;;;;;;;3.90;99.90;;;;;;5133788;27;19923;-75
2022/04/03 00:05:19;;;;;;;;;;;3.80;99.90;;;;;;5133577;27;19924;-75
2022/04/03 00:07:46;;;;;;;;;;;3.80;99.90;;;;;;5114093;27;19923;-75
2022/04/03 00:10:14;;;;;;;;;;;3.80;99.90;;;;;;5115449;27;19967;-75
2022/04/03 00:12:41;;;;;;;;;;;3.70;99.90;;;;;;5098142;27;19924;-74
2022/04/03 00:15:07;;;;;;;;;;;3.70;99.90;;;;;;5081381;27;19924;-75
2022/04/03 00:17:32;;;;;;;;;;;3.70;99.90;;;;;;5098471;27;19971;-75
2022/04/03 00:19:58;;;;;;;;;;;3.70;99.90;;;;;;5115267;27;20010;-75
2022/04/03 00:22:24;;;;;;;;;;;3.60;99.90;;;;;;5114879;27;19928;-74
2022/04/03 00:24:51;;;;;;;;;;;3.60;99.90;;;;;;5115314;27;19954;-74
2022/04/03 00:27:16;;;;;;;;;;;3.60;99.90;;;;;;5149963;27;19924;-75
2022/04/03 00:29:42;;;;;;;;;;;3.60;99.90;;;;;;5115036;27;20374;-74
2022/04/03 00:32:07;;;;;;;;;;;3.50;99.90;;;;;;5115170;27;19927;-74
2022/04/03 00:34:33;;;;;;;;;;;3.50;99.90;;;;;;5132689;27;19935;-74
2022/04/03 00:36:59;;;;;;;;;;;3.50;99.90;;;;;;5115649;27;19923;-75
2022/04/03 00:39:24;;;;;;;;;;;3.50;99.90;;;;;;5115556;27;20311;-74
2022/04/03 00:41:50;;;;;;;;;;;3.40;99.90;;;;;;5115937;27;19923;-74
2022/04/03 00:44:17;;;;;;;;;;;3.40;99.90;;;;;;5114986;28;20398;-75
2022/04/03 00:46:43;;;;;;;;;;;3.40;99.90;;;;;;5114255;27;19967;-73
2022/04/03 00:49:08;;;;;;;;;;;3.40;99.90;;;;;;5114546;27;19981;-74
2022/04/03 00:51:34;;;;;;;;;;;3.40;99.90;;;;;;5114507;27;19923;-74
2022/04/03 00:54:00;;;;;;;;;;;3.30;99.90;;;;;;5114928;27;20294;-74
2022/04/03 00:56:26;;;;;;;;;;;3.20;99.90;;;;;;5114822;28;19923;-74
2022/04/03 00:58:52;;;;;;;;;;;3.20;99.90;;;;;;5114563;28;20287;-74
2022/04/03 01:01:19;;;;;;;;;;;3.20;99.90;;;;;;5103957;28;19924;-74
2022/04/03 01:03:45;;;;;;;;;;;3.20;99.90;;;;;;5076889;28;20378;-74
2022/04/03 01:06:11;;;;;;;;;;;3.00;99.90;;;;;;5077403;28;19924;-74
2022/04/03 01:08:36;;;;;;;;;;;3.00;99.90;;;;;;5094098;28;19924;-74
2022/04/03 01:11:02;;;;;;;;;;;2.90;99.90;;;;;;5077559;28;20015;-74
2022/04/03 01:13:28;;;;;;;;;;;2.90;99.90;;;;;;5093925;28;19934;-75
2022/04/03 01:16:00;;;;;;;;;;;2.80;99.90;;;;;;5094258;28;19927;-75
2022/04/03 01:18:26;;;;;;;;;;;2.80;99.90;;;;;;5094881;28;19930;-74
2022/04/03 01:20:52;;;;;;;;;;;2.80;99.90;;;;;;5098221;28;19924;-74
2022/04/03 01:23:19;;;;;;;;;;;2.70;99.90;;;;;;5081678;28;19928;-72
2022/04/03 01:25:45;;;;;;;;;;;2.70;99.90;;;;;;5099024;28;19924;-73
2022/04/03 01:28:11;;;;;;;;;;;2.70;99.90;;;;;;5064950;28;19924;-73
2022/04/03 01:30:36;;;;;;;;;;;2.70;99.90;;;;;;5098227;28;19924;-73
2022/04/03 01:33:02;;;;;;;;;;;2.70;99.90;;;;;;5081334;28;20282;-73
2022/04/03 01:35:28;;;;;;;;;;;2.60;99.90;;;;;;5098360;28;19963;-74
2022/04/03 01:37:53;;;;;;;;;;;2.60;99.90;;;;;;5098116;28;19928;-73
2022/04/03 01:40:19;;;;;;;;;;;2.60;99.90;;;;;;5097640;28;19938;-74
2022/04/03 01:42:44;;;;;;;;;;;2.60;99.90;;;;;;5098130;28;19931;-74
2022/04/03 01:45:10;;;;;;;;;;;2.60;99.90;;;;;;5097845;28;20010;-75
2022/04/03 01:47:36;;;;;;;;;;;2.60;99.90;;;;;;5097415;28;19953;-75
2022/04/03 01:50:02;;;;;;;;;;;2.60;99.90;;;;;;5080777;28;19931;-74
2022/04/03 01:52:28;;;;;;;;;;;2.60;99.90;;;;;;5097335;28;19928;-74
2022/04/03 01:54:55;;;;;;;;;;;2.70;99.90;;;;;;5080151;28;20014;-75
2022/04/03 01:57:20;;;;;;;;;;;2.70;99.90;;;;;;5080597;28;20014;-74
2022/04/03 01:59:46;;;;;;;;;;;2.70;99.90;;;;;;5080649;28;19930;-74
2022/04/03 02:02:12;;;;;;;;;;;2.80;99.90;;;;;;5134074;27;19923;-74
2022/04/03 02:04:38;;;;;;;;;;;2.80;99.90;;;;;;5117480;27;19928;-74
2022/04/03 02:07:03;;;;;;;;;;;2.90;99.90;;;;;;5117722;27;20017;-74
2022/04/03 02:09:30;;;;;;;;;;;2.90;99.90;;;;;;5118195;27;19924;-74
2022/04/03 02:11:57;;;;;;;;;;;3.00;99.90;;;;;;5118102;27;20022;-74
2022/04/03 02:14:26;;;;;;;;;;;3.00;99.90;;;;;;5117356;27;19967;-74
2022/04/03 02:16:56;;;;;;;;;;;3.00;99.90;;;;;;5117939;27;20389;-73
2022/04/03 02:19:22;;;;;;;;;;;3.00;99.90;;;;;;5101589;27;19923;-74
2022/04/03 02:21:48;;;;;;;;;;;3.00;99.90;;;;;;5152525;27;19928;-74
2022/04/03 02:24:13;;;;;;;;;;;3.00;99.90;;;;;;5117016;27;20340;-75
2022/04/03 02:26:39;;;;;;;;;;;3.00;99.90;;;;;;5134188;27;20040;-74
2022/04/03 02:29:04;;;;;;;;;;;3.00;99.90;;;;;;5117499;27;19927;-74
2022/04/03 02:31:30;;;;;;;;;;;2.90;99.90;;;;;;5116461;27;19923;-75
2022/04/03 02:33:56;;;;;;;;;;;2.80;99.90;;;;;;5134542;27;19923;-76
2022/04/03 02:36:21;;;;;;;;;;;2.80;99.90;;;;;;5117271;27;19927;-74
2022/04/03 02:38:47;;;;;;;;;;;2.90;99.90;;;;;;5117323;27;19927;-74
2022/04/03 02:41:13;;;;;;;;;;;2.90;99.90;;;;;;5117201;27;20426;-75
2022/04/03 02:43:38;;;;;;;;;;;3.00;99.90;;;;;;5099932;27;19928;-74
2022/04/03 02:46:04;;;;;;;;;;;3.10;99.90;;;;;;5150883;27;19927;-74
2022/04/03 02:48:30;;;;;;;;;;;3.10;99.90;;;;;;5151680;27;19923;-74
2022/04/03 02:50:56;;;;;;;;;;;3.20;99.90;;;;;;5117150;27;19951;-74
2022/04/03 02:53:22;;;;;;;;;;;3.20;99.90;;;;;;5150629;27;19931;-73
2022/04/03 02:55:47;;;;;;;;;;;3.20;99.90;;;;;;5133767;27;19924;-73
2022/04/03 02:58:13;;;;;;;;;;;3.20;99.90;;;;;;5135573;27;19927;-74
2022/04/03 03:00:39;;;;;;;;;;;3.20;99.90;;;;;;5112037;28;19934;-74
2022/04/03 03:03:06;;;;;;;;;;;3.20;99.90;;;;;;5079407;28;19924;-74
2022/04/03 03:05:32;;;;;;;;;;;3.20;99.90;;;;;;5097096;28;19923;-74
2022/04/03 03:07:58;;;;;;;;;;;3.20;99.90;;;;;;5081842;28;19931;-74
2022/04/03 03:10:24;;;;;;;;;;;3.20;99.90;;;;;;5099104;28;19950;-74
2022/04/03 03:12:50;;;;;;;;;;;3.30;99.90;;;;;;5096659;28;19924;-75
2022/04/03 03:15:16;;;;;;;;;;;3.30;99.90;;;;;;5079216;28;19924;-74
2022/04/03 03:17:42;;;;;;;;;;;3.20;99.90;;;;;;5096325;28;19924;-74
2022/04/03 03:20:08;;;;;;;;;;;3.30;99.90;;;;;;5079473;28;20433;-75
2022/04/03 03:22:34;;;;;;;;;;;3.50;99.90;;;;;;5096011;28;19967;-75
2022/04/03 03:25:00;;;;;;;;;;;3.60;99.90;;;;;;5095579;28;20390;-74
2022/04/03 03:27:26;;;;;;;;;;;3.60;99.90;;;;;;5096804;28;19924;-75
2022/04/03 03:29:52;;;;;;;;;;;3.70;99.90;;;;;;5096557;28;19947;-75
2022/04/03 03:32:17;;;;;;;;;;;3.70;99.90;;;;;;5079209;28;19946;-75
2022/04/03 03:34:43;;;;;;;;;;;3.70;99.90;;;;;;5079108;28;20294;-75
2022/04/03 03:37:08;;;;;;;;;;;3.80;99.90;;;;;;5095690;28;19928;-74
2022/04/03 03:39:34;;;;;;;;;;;3.80;99.90;;;;;;5078960;28;19971;-74
2022/04/03 03:42:00;;;;;;;;;;;3.80;99.90;;;;;;5095159;28;20187;-74
2022/04/03 03:44:26;;;;;;;;;;;3.80;99.90;;;;;;5114514;28;20389;-74
2022/04/03 03:46:52;;;;;;;;;;;3.80;99.90;;;;;;5095664;28;20006;-74
2022/04/03 03:49:17;;;;;;;;;;;3.70;99.90;;;;;;5095477;28;19924;-74
2022/04/03 03:51:43;;;;;;;;;;;3.70;99.90;;;;;;5096557;28;19931;-74
2022/04/03 03:54:09;;;;;;;;;;;3.60;99.90;;;;;;5115092;28;19962;-73
2022/04/03 03:56:34;;;;;;;;;;;3.60;99.90;;;;;;5078746;28;20302;-75
2022/04/03 03:59:00;;;;;;;;;;;3.50;99.90;;;;;;5095449;28;19930;-74
2022/04/03 04:01:27;;;;;;;;;;;3.50;99.90;;;;;;5106928;27;19966;-75
2022/04/03 04:03:52;;;;;;;;;;;3.50;99.90;;;;;;5115013;27;20429;-75
2022/04/03 04:06:18;;;;;;;;;;;3.40;99.90;;;;;;5115741;27;19978;-74
2022/04/03 04:08:44;;;;;;;;;;;3.40;99.90;;;;;;5115703;27;19929;-75
2022/04/03 04:11:10;;;;;;;;;;;3.40;99.90;;;;;;5149850;27;19924;-75
2022/04/03 04:13:36;;;;;;;;;;;3.40;99.90;;;;;;5115909;27;20367;-74
2022/04/03 04:16:02;;;;;;;;;;;3.30;99.90;;;;;;5115727;27;19923;-73
2022/04/03 04:18:28;;;;;;;;;;;3.40;99.90;;;;;;5115548;27;19927;-74
2022/04/03 04:20:54;;;;;;;;;;;3.30;99.90;;;;;;5115347;27;20453;-74
2022/04/03 04:23:20;;;;;;;;;;;3.30;99.90;;;;;;5115612;27;20014;-74
2022/04/03 04:25:46;;;;;;;;;;;3.30;99.90;;;;;;5115418;27;20374;-74
2022/04/03 04:28:12;;;;;;;;;;;3.30;99.90;;;;;;5115069;27;19924;-74
2022/04/03 04:30:38;;;;;;;;;;;3.40;99.90;;;;;;5115551;27;19974;-75
2022/04/03 04:33:04;;;;;;;;;;;3.50;99.90;;;;;;5150310;27;20305;-74
2022/04/03 04:35:30;;;;;;;;;;;3.60;99.90;;;;;;5115581;27;19946;-74
2022/04/03 04:37:55;;;;;;;;;;;3.70;99.90;;;;;;5115498;27;20366;-74
2022/04/03 04:40:21;;;;;;;;;;;3.70;99.90;;;;;;5132441;27;19924;-74
2022/04/03 04:42:47;;;;;;;;;;;3.70;99.90;;;;;;5115204;27;19923;-74
2022/04/03 04:45:16;;;;;;;;;;;3.80;99.90;;;;;;5115461;27;20335;-74
2022/04/03 04:47:42;;;;;;;;;;;3.80;99.90;;;;;;5115250;27;19938;-74
2022/04/03 04:50:08;;;;;;;;;;;3.80;99.90;;;;;;5114987;27;19923;-75
2022/04/03 04:52:35;;;;;;;;;;;3.80;99.90;;;;;;5115447;27;19980;-75
2022/04/03 04:55:00;;;;;;;;;;;3.80;99.90;;;;;;5131854;27;20013;-75
2022/04/03 04:57:26;;;;;;;;;;;3.80;99.90;;;;;;5114880;27;20015;-74
2022/04/03 04:59:51;;;;;;;;;;;3.70;99.90;;;;;;5114831;27;19930;-74
2022/04/03 05:02:17;;;;;;;;;;;3.70;99.90;;;;;;5095726;28;19924;-73
2022/04/03 05:04:45;;;;;;;;;;;3.70;99.90;;;;;;5077316;28;20495;-74
2022/04/03 05:07:11;;;;;;;;;;;3.80;99.90;;;;;;5077900;28;20010;-74
2022/04/03 05:09:37;;;;;;;;;;;3.70;99.90;;;;;;5095017;28;19924;-74
2022/04/03 05:12:03;;;;;;;;;;;3.80;99.90;;;;;;5077829;28;20382;-74
2022/04/03 05:14:28;;;;;;;;;;;3.80;99.90;;;;;;5094175;28;19934;-74
2022/04/03 05:16:54;;;;;;;;;;;3.80;99.90;;;;;;5094919;28;19924;-75
2022/04/03 05:19:22;;;;;;;;;;;3.70;99.90;;;;;;5094175;28;19935;-74
2022/04/03 05:21:48;;;;;;;;;;;3.80;99.90;;;;;;5077261;28;19927;-75
2022/04/03 05:24:14;;;;;;;;;;;3.70;99.90;;;;;;5094229;28;19924;-74
2022/04/03 05:26:39;;;;;;;;;;;3.70;99.90;;;;;;5094066;28;20388;-74
2022/04/03 05:29:05;;;;;;;;;;;3.70;99.90;;;;;;5077761;28;19924;-74
2022/04/03 05:31:31;;;;;;;;;;;3.70;99.90;;;;;;5094128;28;20425;-75
2022/04/03 05:34:17;;;;;;;;;;;3.80;99.90;;;;;;5112527;28;19918;-74
2022/04/03 05:36:43;;;;;;;;;;;3.80;99.90;;;;;;5094358;28;20377;-74
2022/04/03 05:39:09;;;;;;;;;;;3.90;99.90;;;;;;5094613;28;19963;-74
2022/04/03 05:41:35;;;;;;;;;;;3.90;99.90;;;;;;5112730;28;19931;-74
2022/04/03 05:44:01;;;;;;;;;;;4.00;99.90;;;;;;5094158;28;19924;-74
2022/04/03 05:46:27;;;;;;;;;;;4.10;99.90;;;;;;5094364;28;19931;-75
2022/04/03 05:48:53;;;;;;;;;;;4.10;99.90;;;;;;5095768;28;19927;-73
2022/04/03 05:51:18;;;;;;;;;;;4.10;99.90;;;;;;5094378;28;19927;-74
2022/04/03 05:53:44;;;;;;;;;;;4.20;99.90;;;;;;5094413;28;19924;-73
2022/04/03 05:56:10;;;;;;;;;;;4.30;99.90;;;;;;5093990;28;19927;-74
2022/04/03 05:58:35;;;;;;;;;;;4.40;99.90;;;;;;5094099;28;19924;-74
2022/04/03 06:01:01;;;;;;;;;;;4.40;99.90;;;;;;5101813;28;19930;-74
2022/04/03 06:03:36;;;;;;;;;;;4.50;99.90;;;;;;5114430;28;19982;-74
2022/04/03 06:06:04;;;;;;;;;;;4.50;99.90;;;;;;5079016;28;19924;-74
2022/04/03 06:08:32;;;;;;;;;;;4.50;99.90;;;;;;5110528;28;19931;-74
2022/04/03 06:10:59;;;;;;;;;;;4.50;99.90;;;;;;5111852;27;19928;-75
2022/04/03 06:13:34;;;;;;;;;;;4.50;99.90;;;;;;5094411;28;19928;-74
2022/04/03 06:16:01;;;;;;;;;;;4.60;99.90;;;;;;5127482;27;19927;-75
2022/04/03 06:18:26;;;;;;;;;;;4.60;99.90;;;;;;5094276;28;19931;-74
2022/04/03 06:20:52;;;;;;;;;;;4.60;99.90;;;;;;5077434;28;20384;-75
2022/04/03 06:23:19;;;;;;;;;;;4.60;99.90;;;;;;5128247;27;20022;-74
2022/04/03 06:25:46;;;;;;;;;;;4.70;99.90;;;;;;5094188;28;20329;-74
2022/04/03 06:28:11;;;;;;;;;;;4.80;99.90;;;;;;5094077;28;19939;-74
2022/04/03 06:30:37;;;;;;;;;;;4.90;99.90;;;;;;5077133;28;19924;-74
2022/04/03 06:33:03;;;;;;;;;;;5.10;99.90;;;;;;5092993;28;20449;-75
2022/04/03 06:35:29;;;;;;;;;;;5.20;99.90;;;;;;5076820;28;19936;-75
2022/04/03 06:37:54;;;;;;;;;;;5.20;99.90;;;;;;5093939;28;19924;-74
2022/04/03 06:40:20;;;;;;;;;;;5.20;99.90;;;;;;5093822;28;19924;-74
2022/04/03 06:42:46;;;;;;;;;;;5.20;99.90;;;;;;5079888;28;19924;-74
2022/04/03 06:45:13;;;;;;;;;;;5.20;99.90;;;;;;5097271;28;19924;-74
2022/04/03 06:47:39;;;;;;;;;;;5.20;99.90;;;;;;5094534;28;19928;-74
2022/04/03 06:50:04;;;;;;;;;;;5.20;99.90;;;;;;5092806;28;19931;-74
2022/04/03 06:52:30;;;;;;;;;;;5.20;99.90;;;;;;5076465;28;19932;-74
2022/04/03 06:54:56;;;;;;;;;;;5.20;99.90;;;;;;5097350;28;19938;-73
2022/04/03 06:57:21;;;;;;;;;;;5.20;99.90;;;;;;5096504;28;19924;-74
2022/04/03 06:59:47;;;;;;;;;;;5.20;99.90;;;;;;5093158;28;19930;-74
2022/04/03 07:02:13;;;;;;;;;;;5.20;99.90;;;;;;5075013;28;19933;-74
2022/04/03 07:04:38;;;;;;;;;;;5.20;99.90;;;;;;5060643;28;19934;-74
2022/04/03 07:07:04;;;;;;;;;;;5.40;99.90;;;;;;5075952;28;19924;-74
2022/04/03 07:09:30;;;;;;;;;;;5.60;99.90;;;;;;5076372;28;19924;-74
2022/04/03 07:11:55;;;;;;;;;;;5.80;99.90;;;;;;5092935;28;19930;-74
2022/04/03 07:14:24;;;;;;;;;;;5.90;99.90;;;;;;5076730;28;19961;-74
2022/04/03 07:16:50;;;;;;;;;;;6.10;99.90;;;;;;5092588;28;19928;-74
2022/04/03 07:19:15;;;;;;;;;;;6.30;99.90;;;;;;5092260;28;19928;-74
2022/04/03 07:21:41;;;;;;;;;;;6.40;99.90;;;;;;5092602;28;19969;-74
2022/04/03 07:24:07;;;;;;;;;;;6.60;99.90;;;;;;5092840;28;20015;-74
2022/04/03 07:26:33;;;;;;;;;;;6.70;99.90;;;;;;5092943;28;19985;-74
2022/04/03 07:28:59;;;;;;;;;;;6.80;99.90;;;;;;5092709;28;19946;-74
2022/04/03 07:31:25;;;;;;;;;;;7.00;99.90;;;;;;5092522;28;19924;-74
2022/04/03 07:33:50;;;;;;;;;;;7.10;99.90;;;;;;5094144;28;19932;-75
2022/04/03 07:36:16;;;;;;;;;;;7.30;99.90;;;;;;5092596;28;19924;-74
2022/04/03 07:38:42;;;;;;;;;;;7.40;99.90;;;;;;5075403;28;19924;-74
2022/04/03 07:41:07;;;;;;;;;;;7.50;99.90;;;;;;5092386;28;20014;-75
2022/04/03 07:43:33;;;;;;;;;;;7.70;99.90;;;;;;5075428;28;19932;-75
2022/04/03 07:45:59;;;;;;;;;;;7.80;99.90;;;;;;5075985;28;20336;-75
2022/04/03 07:48:25;;;;;;;;;;;7.90;99.90;;;;;;5094020;28;20007;-75
2022/04/03 07:50:52;;;;;;;;;;;7.90;99.90;;;;;;5075529;28;20034;-75
2022/04/03 07:53:18;;;;;;;;;;;8.00;99.90;;;;;;5075388;28;19924;-76
2022/04/03 07:55:43;;;;;;;;;;;8.10;99.90;;;;;;5093671;28;19931;-76
2022/04/03 07:58:09;;;;;;;;;;;8.20;99.90;;;;;;5074960;28;20359;-75
2022/04/03 08:00:35;;;;;;;;;;;8.20;99.90;;;;;;5091841;28;19932;-74
2022/04/03 08:03:00;;;;;;;;;;;8.20;99.90;;;;;;5092189;28;19950;-74
2022/04/03 08:05:26;;;;;;;;;;;8.30;99.90;;;;;;5092260;28;20402;-75
2022/04/03 08:07:52;;;;;;;;;;;8.40;99.90;;;;;;5091848;28;19930;-75
2022/04/03 08:10:18;;;;;;;;;;;8.40;99.90;;;;;;5092215;28;20283;-75
2022/04/03 08:12:45;;;;;;;;;;;8.40;99.90;;;;;;5092014;28;20290;-75
2022/04/03 08:15:11;;;;;;;;;;;8.40;99.90;;;;;;5091680;28;19924;-75
2022/04/03 08:17:40;;;;;;;;;;;8.50;99.90;;;;;;5091951;28;20326;-75
2022/04/03 08:20:10;;;;;;;;;;;8.50;99.90;;;;;;5091591;28;20011;-75
2022/04/03 08:22:37;;;;;;;;;;;8.50;99.90;;;;;;5092811;28;19924;-75
2022/04/03 08:25:06;;;;;;;;;;;8.50;99.90;;;;;;5092952;28;19928;-75
2022/04/03 08:27:46;;;;;;;;;;;8.60;99.90;;;;;;5091399;28;19970;-75
2022/04/03 08:30:13;;;;;;;;;;;8.70;99.90;;;;;;5091493;28;19924;-74
2022/04/03 08:32:41;;;;;;;;;;;8.80;99.90;;;;;;5091607;28;19928;-75
2022/04/03 08:35:07;;;;;;;;;;;8.70;99.90;;;;;;5093068;28;20383;-75
2022/04/03 08:37:32;;;;;;;;;;;8.70;99.90;;;;;;5091535;28;19924;-76
2022/04/03 08:39:58;;;;;;;;;;;8.90;99.90;;;;;;5091875;28;20061;-76
2022/04/03 08:42:26;;;;;;;;;;;8.90;99.90;;;;;;5091824;28;20015;-76
2022/04/03 08:44:55;;;;;;;;;;;9.10;99.90;;;;;;5092750;28;19924;-76
2022/04/03 08:47:21;;;;;;;;;;;9.20;99.90;;;;;;5092147;28;19931;-74
2022/04/03 08:49:47;;;;;;;;;;;9.10;99.90;;;;;;5093328;28;19920;-75
2022/04/03 08:52:13;;;;;;;;;;;9.20;99.90;;;;;;5091603;28;19971;-76
2022/04/03 08:54:39;;;;;;;;;;;9.50;99.90;;;;;;5108534;28;20375;-76
2022/04/03 08:57:05;;;;;;;;;;;9.60;99.90;;;;;;5074323;28;19924;-76
2022/04/03 08:59:31;;;;;;;;;;;9.70;99.90;;;;;;5092865;28;19924;-75
2022/04/03 09:01:57;;;;;;;;;;;9.90;99.90;;;;;;5109274;28;20394;-76
2022/04/03 09:04:23;;;;;;;;;;;9.80;99.90;;;;;;5075311;28;19983;-76
2022/04/03 09:06:53;;;;;;;;;;;9.60;99.90;;;;;;5111860;28;19927;-75
2022/04/03 09:09:23;;;;;;;;;;;9.40;99.90;;;;;;5094368;28;19924;-76
2022/04/03 09:12:07;;;;;;;;;;;9.20;99.90;;;;;;5077750;28;20020;-76
2022/04/03 09:14:33;;;;;;;;;;;9.30;99.90;;;;;;5112061;28;19932;-77
2022/04/03 09:16:59;;;;;;;;;;;9.20;99.90;;;;;;5128532;28;19927;-76
2022/04/03 09:19:33;;;;;;;;;;;9.40;99.90;;;;;;5077709;28;19924;-77
2022/04/03 09:21:59;;;;;;;;;;;9.50;99.90;;;;;;5128696;28;19934;-75
2022/04/03 09:24:25;;;;;;;;;;;9.60;99.90;;;;;;5111631;28;19924;-75
2022/04/03 09:27:00;;;;;;;;;;;9.70;99.70;;;;;;5094218;28;20367;-76
2022/04/03 09:29:26;;;;;;;;;;;9.90;99.10;;;;;;5076537;28;19930;-76
2022/04/03 09:31:59;;;;;;;;;;;10.10;99.90;;;;;;5076928;28;20007;-75
2022/04/03 09:34:25;;;;;;;;;;;10.20;98.90;;;;;;5077067;28;20007;-75
2022/04/03 09:36:58;;;;;;;;;;;10.10;99.50;;;;;;5077059;28;19928;-77
2022/04/03 09:39:24;;;;;;;;;;;10.00;99.90;;;;;;5095479;28;20318;-77
2022/04/03 09:41:56;;;;;;;;;;;10.10;99.80;;;;;;5098736;28;20023;-77
2022/04/03 09:44:26;;;;;;;;;;;10.10;99.90;;;;;;5098043;28;19996;-76
2022/04/03 09:47:11;;;;;;;;;;;10.10;99.90;;;;;;5116671;28;19924;-76
2022/04/03 09:49:38;;;;;;;;;;;10.10;99.90;;;;;;5098553;28;19931;-77
2022/04/03 09:52:04;;;;;;;;;;;10.20;98.90;;;;;;5098271;28;20026;-76
2022/04/03 09:54:30;;;;;;;;;;;10.10;99.00;;;;;;5117176;28;20020;-77
2022/04/03 09:56:56;;;;;;;;;;;10.10;99.20;;;;;;5136021;27;19924;-76
2022/04/03 09:59:21;;;;;;;;;;;10.10;98.80;;;;;;5097996;28;20033;-75
2022/04/03 10:01:55;;;;;;;;;;;10.40;99.90;;;;;;5112450;27;20366;-75
2022/04/03 10:04:22;;;;;;;;;;;10.90;99.80;;;;;;5100818;27;19923;-75
2022/04/03 10:06:48;;;;;;;;;;;10.90;99.00;;;;;;5084655;27;20375;-76
2022/04/03 10:09:16;;;;;;;;;;;10.80;98.60;;;;;;5118467;27;19996;-76
2022/04/03 10:11:46;;;;;;;;;;;11.40;99.00;;;;;;5119272;27;19976;-76
2022/04/03 10:14:12;;;;;;;;;;;11.50;97.70;;;;;;5118460;27;19923;-77
2022/04/03 10:16:38;;;;;;;;;;;11.60;97.20;;;;;;5101552;27;19934;-76
2022/04/03 10:19:03;;;;;;;;;;;11.90;96.80;;;;;;5135311;27;20374;-76
2022/04/03 10:21:36;;;;;;;;;;;11.60;96.40;;;;;;5117948;27;20018;-76
2022/04/03 10:24:14;;;;;;;;;;;11.70;95.90;;;;;;5117769;27;19923;-76
2022/04/03 10:26:41;;;;;;;;;;;11.40;94.50;;;;;;5100880;27;20483;-76
2022/04/03 10:29:10;;;;;;;;;;;11.20;95.70;;;;;;5152476;27;20293;-76
2022/04/03 10:31:39;;;;;;;;;;;11.40;96.90;;;;;;5117858;27;19969;-76
2022/04/03 10:34:05;;;;;;;;;;;11.90;97.30;;;;;;5117710;27;20378;-76
2022/04/03 10:36:31;;;;;;;;;;;11.50;95.20;;;;;;5118359;27;19999;-76
2022/04/03 10:39:08;;;;;;;;;;;11.40;94.30;;;;;;5117975;27;20443;-76
2022/04/03 10:41:39;;;;;;;;;;;11.70;96.20;;;;;;5134800;27;20402;-75
2022/04/03 10:44:12;;;;;;;;;;;12.10;95.10;;;;;;5120491;27;20379;-77
2022/04/03 10:46:56;;;;;;;;;;;12.50;96.30;;;;;;5102422;27;20270;-76
2022/04/03 10:49:32;;;;;;;;;;;12.80;93.60;;;;;;5117875;27;19945;-77
2022/04/03 10:52:01;;;;;;;;;;;12.70;93.50;;;;;;5096969;27;20015;-77
2022/04/03 10:54:29;;;;;;;;;;;12.70;94.30;;;;;;5117734;27;19924;-77
2022/04/03 10:57:14;;;;;;;;;;;12.60;93.60;;;;;;5117928;27;19976;-77
2022/04/03 10:59:40;;;;;;;;;;;12.40;94.90;;;;;;5117255;27;20370;-75
2022/04/03 11:02:13;;;;;;;;;;;12.60;95.00;;;;;;5100064;28;20097;-76
2022/04/03 11:04:38;;;;;;;;;;;12.60;95.50;;;;;;5079514;28;19928;-76
2022/04/03 11:07:14;;;;;;;;;;;12.40;94.40;;;;;;5097634;28;19924;-76
2022/04/03 11:09:40;;;;;;;;;;;12.50;94.70;;;;;;5115973;28;20371;-75
2022/04/03 11:12:06;;;;;;;;;;;12.70;94.40;;;;;;5097632;28;19930;-76
2022/04/03 11:14:55;;;;;;;;;;;12.20;95.10;;;;;;5115444;28;19924;-76
2022/04/03 11:17:39;;;;;;;;;;;12.20;95.50;;;;;;5096864;28;20452;-75
2022/04/03 11:20:08;;;;;;;;;;;12.60;95.20;;;;;;5115356;28;20343;-75
2022/04/03 11:22:34;;;;;;;;;;;12.50;93.10;;;;;;5079681;28;19927;-76
2022/04/03 11:25:00;;;;;;;;;;;12.90;93.30;;;;;;5079676;28;20019;-76
2022/04/03 11:27:26;;;;;;;;;;;12.90;90.30;;;;;;5063036;28;20010;-76
2022/04/03 11:29:53;;;;;;;;;;;13.30;91.40;;;;;;5097081;28;20353;-77
2022/04/03 11:32:19;;;;;;;;;;;13.00;91.50;;;;;;5116337;28;20394;-76
2022/04/03 11:34:55;;;;;;;;;;;12.70;93.10;;;;;;5100568;28;19982;-77
2022/04/03 11:37:21;;;;;;;;;;;12.90;92.70;;;;;;5102585;28;19924;-76
2022/04/03 11:39:47;;;;;;;;;;;12.80;91.40;;;;;;5101568;28;19924;-77
2022/04/03 11:42:13;;;;;;;;;;;12.70;90.80;;;;;;5063070;28;19939;-76
2022/04/03 11:44:50;;;;;;;;;;;12.90;91.70;;;;;;5096126;28;19923;-75
2022/04/03 11:47:21;;;;;;;;;;;12.90;91.50;;;;;;5096128;28;20387;-76
2022/04/03 11:49:47;;;;;;;;;;;13.10;86.90;;;;;;5078776;28;19924;-77
2022/04/03 11:52:13;;;;;;;;;;;13.50;91.00;;;;;;5095959;28;19934;-76
2022/04/03 11:54:39;;;;;;;;;;;13.30;84.10;;;;;;5078432;28;20026;-76
2022/04/03 11:57:06;;;;;;;;;;;13.20;87.10;;;;;;5095742;28;19930;-76
2022/04/03 11:59:32;;;;;;;;;;;13.60;83.30;;;;;;5078946;28;19973;-76
2022/04/03 12:01:58;;;;;;;;;;;13.50;89.20;;;;;;5112066;27;19930;-75
2022/04/03 12:04:24;;;;;;;;;;;13.90;82.90;;;;;;5114864;27;19928;-75
2022/04/03 12:06:58;;;;;;;;;;;14.30;83.00;;;;;;5099467;27;19974;-76
2022/04/03 12:09:24;;;;;;;;;;;14.60;88.40;;;;;;5082379;27;19931;-76
2022/04/03 12:11:53;;;;;;;;;;;13.70;78.20;;;;;;5150399;27;20310;-77
2022/04/03 12:14:33;;;;;;;;;;;14.00;84.60;;;;;;5133198;27;19974;-76
2022/04/03 12:17:00;;;;;;;;;;;13.90;79.80;;;;;;5098925;27;20018;-76
2022/04/03 12:19:26;;;;;;;;;;;14.20;82.90;;;;;;5115763;27;20267;-77
2022/04/03 12:21:57;;;;;;;;;;;14.40;72.80;;;;;;5150680;27;19931;-76
2022/04/03 12:24:24;;;;;;;;;;;14.60;77.30;;;;;;5115558;27;20476;-76
2022/04/03 12:26:51;;;;;;;;;;;14.60;74.10;;;;;;5098585;27;20386;-76
2022/04/03 12:29:17;;;;;;;;;;;15.50;71.80;;;;;;5099137;27;19923;-77
2022/04/03 12:31:44;;;;;;;;;;;15.40;68.90;;;;;;5098745;27;19932;-76
2022/04/03 12:34:11;;;;;;;;;;;16.40;64.10;;;;;;5116237;27;20324;-76
2022/04/03 12:36:47;;;;;;;;;;;16.90;58.00;;;;;;5150947;27;19923;-76
2022/04/03 12:39:45;;;;;;;;;;;16.20;55.50;;;;;;5117330;27;19929;-76
2022/04/03 12:42:13;;;;;;;;;;;15.60;57.00;;;;;;5073571;28;19925;-76
2022/04/03 12:44:45;;;;;;;;;;;15.70;56.30;;;;;;5072919;28;20027;-76
2022/04/03 12:47:14;;;;;;;;;;;15.80;55.30;;;;;;5020206;28;19924;-76
2022/04/03 12:49:41;;;;;;;;;;;15.50;54.30;;;;;;5035423;28;20015;-77
2022/04/03 12:52:07;;;;;;;;;;;15.70;58.70;;;;;;5017166;28;20375;-77
2022/04/03 12:54:42;;;;;;;;;;;15.80;54.70;;;;;;5033724;28;19935;-77
2022/04/03 13:00:14;;;;;;;;;;;16.80;53.40;;;;;;5032711;28;19925;-77
2022/04/03 13:02:42;;;;;;;;;;;17.50;50.40;;;;;;5030294;28;19925;-77
2022/04/03 13:05:17;;;;;;;;;;;18.10;49.80;;;;;;5013118;28;19929;-77
2022/04/03 13:07:43;;;;;;;;;;;18.10;53.00;;;;;;5013891;28;19933;-77
2022/04/03 13:10:18;;;;;;;;;;;19.30;49.50;;;;;;5030378;28;19937;-77
2022/04/03 13:12:50;;;;;;;;;;;19.60;49.10;;;;;;5030288;28;19983;-76
2022/04/03 13:15:16;;;;;;;;;;;20.40;48.00;;;;;;5029941;28;19974;-77
2022/04/03 13:17:42;;;;;;;;;;;20.50;46.50;;;;;;5052179;28;19931;-78
2022/04/03 13:20:09;;;;;;;;;;;20.30;45.20;;;;;;5113369;28;20028;-77
2022/04/03 13:22:34;;;;;;;;;;;20.60;44.80;;;;;;5094505;28;19931;-77
2022/04/03 13:25:00;;;;;;;;;;;21.00;44.00;;;;;;5096014;28;19924;-78
2022/04/03 13:27:26;;;;;;;;;;;21.10;43.70;;;;;;5095733;28;19931;-77
2022/04/03 13:29:51;;;;;;;;;;;20.10;43.10;;;;;;5077989;28;19923;-76
2022/04/03 13:32:19;;;;;;;;;;;19.90;43.50;;;;;;5094047;28;20374;-76
2022/04/03 13:34:45;;;;;;;;;;;19.90;42.90;;;;;;5094899;28;19924;-77
2022/04/03 13:37:10;;;;;;;;;;;19.80;41.80;;;;;;5095076;28;19924;-77
2022/04/03 13:39:36;;;;;;;;;;;20.10;44.90;;;;;;5094445;28;20401;-77
2022/04/03 13:42:07;;;;;;;;;;;19.10;44.60;;;;;;5095348;28;19924;-76
2022/04/03 13:44:32;;;;;;;;;;;19.70;43.90;;;;;;5094494;28;20391;-78
2022/04/03 13:46:58;;;;;;;;;;;18.50;45.60;;;;;;5111858;28;19971;-77
2022/04/03 13:49:24;;;;;;;;;;;17.90;46.10;;;;;;5078287;28;20375;-77
2022/04/03 13:51:56;;;;;;;;;;;18.20;47.70;;;;;;5097473;28;19924;-77
2022/04/03 13:54:22;;;;;;;;;;;18.60;46.40;;;;;;5082274;28;19924;-78
2022/04/03 13:56:51;;;;;;;;;;;18.50;46.90;;;;;;5094461;28;20019;-77
2022/04/03 13:59:17;;;;;;;;;;;16.60;48.50;;;;;;5076340;28;19931;-79
2022/04/03 14:01:44;;;;;;;;;;;14.80;54.90;;;;;;5093027;28;19924;-76
2022/04/03 14:04:09;;;;;;;;;;;13.50;80.60;;;;;;5075900;28;19930;-76
2022/04/03 14:06:35;;;;;;;;;;;12.60;92.50;;;;;;5062798;28;19929;-78
2022/04/03 14:09:04;;;;;;;;;;;12.50;92.80;;;;;;5013230;28;19931;-79
2022/04/03 14:29:18;;;;;;;2.78;0.90;;;11.10;94.30;;;;;;6322581;22;1345105;-84
2022/04/03 14:31:45;;;;;;;3.70;0.70;;;14.90;70.50;;;;;;6341106;22;20347;-81
2022/04/03 14:34:30;;;;;;;1.63;0.50;;;15.20;69.70;;;;;;6252967;22;20059;-84
2022/04/03 14:36:55;;;;;;;2.17;0.70;;;14.70;68.30;;;;;;6224165;23;20055;-72
2022/04/03 14:39:21;;;;;;;5.20;0.77;;;13.90;74.00;;;;;;6250474;22;20553;-83
2022/04/03 14:41:47;;;;;;;2.03;0.60;;;13.30;81.60;;;;;;6221856;23;20016;-87
2022/04/03 14:44:13;;;;;;;1.75;0.70;;;14.40;79.50;;;;;;6250839;22;20742;-78